Flight Track Log - Related Links

Times and Time Zones

All times are in EDT time to prevent confusion due to time zone crossing. See the N400PU flight status page for this flight to view local times or setup timezone preferences in your user account.

Time Position Orientation Groundspeed Altitude Reporting Facility
EDT Latitude Longitude Course Direction KTS MPH feet Rate Location/Type
Sat 13:31:16 40.9106 -96.7200 31° Northeast 221 254 5,400  Level Minneapolis Center
Sat 13:32:17 40.9031 -96.6244 96° East 257 296 8,000 2,585 Climbing Minneapolis Center
Sat 13:33:19 40.8931 -96.5219 97° East 279 321 10,700 2,537 Climbing Minneapolis Center
Sat 13:34:20 40.8808 -96.4161 99° East 289 333 13,200 2,537 Climbing Minneapolis Center
Sat 13:35:22 40.8672 -96.2806 98° East 306 352 15,900 2,537 Climbing Minneapolis Center
Sat 13:36:23 40.8547 -96.1606 98° East 318 366 18,400 2,341 Climbing Minneapolis Center
Sat 13:37:25 40.8406 -96.0408 99° East 326 375 20,700 2,049 Climbing Minneapolis Center
Sat 13:38:26 40.8278 -95.9200 98° East 331 381 22,600 1,805 Climbing Minneapolis Center
Sat 13:39:28 40.8142 -95.7956 98° East 340 391 24,400 1,805 Climbing Minneapolis Center
Sat 13:40:29 40.8003 -95.6703 98° East 346 398 26,300 1,902 Climbing Minneapolis Center
Sat 13:41:31 40.7842 -95.5178 98° East 351 404 28,300 1,548 Climbing Minneapolis Center
Sat 13:42:33 40.7692 -95.3872 99° East 358 412 29,500 1,171 Climbing Minneapolis Center
Sat 13:43:34 40.7519 -95.2531 100° East 368 423 30,700 1,122 Climbing Minneapolis Center
Sat 13:44:36 40.7367 -95.1139 98° East 380 437 31,800 976 Climbing Minneapolis Center
Sat 13:45:37 40.7194 -94.9722 99° East 390 449 32,700 878 Climbing Minneapolis Center
Sat 13:46:39 40.7025 -94.8264 99° East 400 460 33,600 927 Climbing Minneapolis Center
Sat 13:47:40 40.6856 -94.6792 99° East 406 467 34,600 1,024 Climbing Minneapolis Center
Sat 13:48:42 40.6642 -94.5122 100° East 407 468 35,700 829 Climbing Minneapolis Center
Sat 13:49:43 40.6472 -94.3661 99° East 407 468 36,300 585 Climbing Minneapolis Center
Sat 13:50:45 40.6286 -94.2186 99° East 410 472 36,900 634 Climbing Minneapolis Center
Sat 13:51:46 40.6100 -94.0711 99° East 412 474 37,600 634 Climbing Minneapolis Center
Sat 13:52:48 40.5942 -93.9231 98° East 412 474 38,200 634 Climbing Minneapolis Center
Sat 13:53:49 40.5967 -93.7733 89° East 410 472 38,900 390 Climbing Minneapolis Center
Sat 13:54:51 40.5972 -93.5950 90° East 411 473 39,000 49 Climbing Minneapolis Center
Sat 13:55:52 40.5964 -93.4408 90° East 419 482 39,000  Level Minneapolis Center
Sat 13:56:41 40.5950 -93.3122 91° East 430 495 39,000  Level Kansas Center
Sat 13:57:42 40.5950 -93.1506 90° East 440 506 39,000  Level Kansas Center
Sat 13:58:43 40.5944 -92.9906 90° East 446 513 39,000  Level Kansas Center
Sat 13:59:47 40.5939 -92.8047 90° East 453 521 39,000  Level Kansas Center
Sat 14:00:47 40.5936 -92.6525 90° East 459 528 39,000  Level Kansas Center
Sat 14:01:50 40.5925 -92.4803 90° East 464 534 39,000  Level Kansas Center
Sat 14:02:51 40.5919 -92.3089 90° East 466 536 39,000  Level Kansas Center
Sat 14:03:52 40.5889 -92.1025 91° East 469 540 39,000  Level Kansas Center
Sat 14:04:56 40.5867 -91.9308 91° East 471 542 39,000  Level Kansas Center
Sat 14:05:57 40.5847 -91.7581 91° East 473 544 39,000  Level Kansas Center
Sat 14:06:57 40.5814 -91.5869 91° East 472 543 39,000  Level Kansas Center
Sat 14:07:28 40.5808 -91.4842 90° East 473 544 39,000  Level Chicago Center
Sat 14:08:30 40.5775 -91.3103 91° East 477 549 39,000  Level Chicago Center
Sat 14:09:32 40.5739 -91.1369 92° East 475 547 39,000  Level Chicago Center
Sat 14:10:33 40.5697 -90.9636 92° East 476 548 39,000 -341 Level Chicago Center
Sat 14:11:35 40.5664 -90.7903 91° East 474 545 38,300 -1,355 Descending Chicago Center
Sat 14:12:37 40.5622 -90.6161 92° East 478 550 36,200 -1,610 Descending Chicago Center
Sat 14:13:38 40.5567 -90.4131 92° East 464 534 35,000 -585 Descending Chicago Center
Sat 14:14:40 40.5522 -90.2464 92° East 459 528 35,000  Level Chicago Center
Sat 14:15:42 40.5469 -90.0886 92° East 465 535 35,000  Level Chicago Center
Sat 14:16:43 40.5417 -89.9192 92° East 466 536 35,000  Level Chicago Center
Sat 14:17:45 40.5344 -89.7192 93° East 461 531 35,000  Level Chicago Center
Sat 14:18:47 40.5300 -89.5469 92° East 462 532 35,000  Level Chicago Center
Sat 14:19:49 40.5236 -89.3814 93° East 458 527 35,000 -341 Level Chicago Center
Sat 14:20:50 40.5178 -89.2147 93° East 459 528 34,300 -1,561 Descending Chicago Center
Sat 14:21:52 40.5114 -89.0492 93° East 457 526 31,800 -2,371 Descending Chicago Center
Sat 14:22:54 40.5042 -88.8819 93° East 459 528 29,400 -2,468 Descending Chicago Center
Sat 14:23:56 40.4969 -88.6861 93° East 466 536 26,700 -2,488 Descending Chicago Center
Sat 14:24:57 40.4900 -88.5158 93° East 470 541 24,300 -1,317 Descending Chicago Center
Sat 14:25:59 40.4831 -88.3456 93° East 470 541 24,000 -581 Descending Chicago Center
Sat 14:27:01 40.4764 -88.1758 93° East 471 542 23,100 -1,694 Descending Chicago Center
Sat 14:28:03 40.4686 -88.0075 93° East 468 539 20,500 -3,073 Descending Chicago Center
Sat 14:29:04 40.4600 -87.8147 93° East 445 512 16,800 -3,366 Descending Chicago Center
Sat 14:30:06 40.4528 -87.6678 94° East 413 475 13,600 -3,101 Descending Chicago Center
Sat 14:30:33 40.4478 -87.6025 96° East 393 452 12,200 -2,710 Descending Chicago Center
Sat 14:31:08 40.4461 -87.5347 92° East 373 429 10,800 -1,750 Descending Chicago Center
Sat 14:32:09 40.4397 -87.4108 94° East 310 357 9,400 -1,756 Descending Chicago Center
Sat 14:33:11 40.4347 -87.3031 93° East 294 338 7,200 -2,177 Descending Chicago Center
Sat 14:34:13 40.4475 -87.2003 81° East 285 328 4,900 -1,935 Descending Chicago Center
Sat 14:35:15 40.4325 -87.1169 103° East 251 289 3,200 -1,328 Descending Chicago Center
Sat 14:36:24 40.4233 -87.0408 99° East 176 203 2,000 -877 Descending Chicago Center
Sat 14:37:25 40.4169 -86.9911 100° East 131 151 1,300 -689 Descending Chicago Center
Sat 14:39:00 40.4000 -86.9333 90° East  Level FlightAware
Sat 14:46:00 40.4123 -86.9369 90° East  Level Estimated
Sat 14:47:00 40.4123 -86.9369 90° East  Level Estimated

Login

Don't have an account? Register now (free) for customized features, flight alerts, and more!